sensor_id;sensor_type;location;lat;lon;timestamp;pressure;altitude;pressure_sealevel;temperature;humidity
64292;BME280;50628;51.008;13.658;2023-02-01T00:02:38;99539.75;;;4.63;100.00
64292;BME280;50628;51.008;13.658;2023-02-01T00:07:41;99543.31;;;4.61;100.00
64292;BME280;50628;51.008;13.658;2023-02-01T00:12:45;99533.56;;;4.51;100.00
64292;BME280;50628;51.008;13.658;2023-02-01T00:17:47;99536.16;;;4.51;100.00
64292;BME280;50628;51.008;13.658;2023-02-01T00:22:49;99534.88;;;4.59;100.00
64292;BME280;50628;51.008;13.658;2023-02-01T00:27:52;99543.03;;;4.51;100.00
64292;BME280;50628;51.008;13.658;2023-02-01T00:32:54;99537.63;;;4.55;100.00
64292;BME280;50628;51.008;13.658;2023-02-01T00:37:55;99542.88;;;4.54;100.00
64292;BME280;50628;51.008;13.658;2023-02-01T00:43:00;99549.94;;;4.50;100.00
64292;BME280;50628;51.008;13.658;2023-02-01T00:48:02;99541.94;;;4.55;100.00
64292;BME280;50628;51.008;13.658;2023-02-01T00:53:04;99544.25;;;4.60;100.00
64292;BME280;50628;51.008;13.658;2023-02-01T00:58:07;99553.19;;;4.54;100.00
64292;BME280;50628;51.008;13.658;2023-02-01T01:03:09;99562.38;;;4.58;100.00
64292;BME280;50628;51.008;13.658;2023-02-01T01:08:18;99565.97;;;4.55;100.00
64292;BME280;50628;51.008;13.658;2023-02-01T01:13:22;99548.66;;;4.58;100.00
64292;BME280;50628;51.008;13.658;2023-02-01T01:18:24;99549.59;;;4.57;100.00
64292;BME280;50628;51.008;13.658;2023-02-01T01:23:26;99552.63;;;4.49;100.00
64292;BME280;50628;51.008;13.658;2023-02-01T01:28:30;99541.66;;;4.45;100.00
64292;BME280;50628;51.008;13.658;2023-02-01T01:33:31;99527.75;;;4.48;100.00
64292;BME280;50628;51.008;13.658;2023-02-01T01:38:34;99521.22;;;4.42;100.00
64292;BME280;50628;51.008;13.658;2023-02-01T01:43:52;99539.19;;;4.44;100.00
64292;BME280;50628;51.008;13.658;2023-02-01T01:49:01;99523.25;;;4.37;100.00
64292;BME280;50628;51.008;13.658;2023-02-01T01:54:08;99523.50;;;4.32;100.00
64292;BME280;50628;51.008;13.658;2023-02-01T01:59:14;99518.91;;;4.38;100.00
64292;BME280;50628;51.008;13.658;2023-02-01T02:04:16;99525.75;;;4.39;100.00
64292;BME280;50628;51.008;13.658;2023-02-01T02:09:18;99525.75;;;4.39;100.00
64292;BME280;50628;51.008;13.658;2023-02-01T02:14:23;99516.16;;;4.41;100.00
64292;BME280;50628;51.008;13.658;2023-02-01T02:19:49;99523.34;;;4.50;100.00
64292;BME280;50628;51.008;13.658;2023-02-01T02:25:20;99515.63;;;4.50;100.00
64292;BME280;50628;51.008;13.658;2023-02-01T02:30:41;99505.69;;;4.44;100.00
64292;BME280;50628;51.008;13.658;2023-02-01T02:35:52;99515.03;;;4.30;100.00
64292;BME280;50628;51.008;13.658;2023-02-01T02:41:06;99527.66;;;4.35;100.00
64292;BME280;50628;51.008;13.658;2023-02-01T02:46:16;99505.72;;;4.28;100.00
64292;BME280;50628;51.008;13.658;2023-02-01T02:51:44;99495.59;;;4.25;100.00
64292;BME280;50628;51.008;13.658;2023-02-01T02:57:07;99512.56;;;4.29;100.00
64292;BME280;50628;51.008;13.658;2023-02-01T03:02:30;99504.91;;;4.27;100.00
64292;BME280;50628;51.008;13.658;2023-02-01T03:08:01;99506.47;;;4.30;100.00
64292;BME280;50628;51.008;13.658;2023-02-01T03:13:07;99499.19;;;4.22;100.00
64292;BME280;50628;51.008;13.658;2023-02-01T03:18:13;99512.75;;;4.26;100.00
64292;BME280;50628;51.008;13.658;2023-02-01T03:23:20;99503.63;;;4.34;100.00
64292;BME280;50628;51.008;13.658;2023-02-01T03:28:27;99512.19;;;4.35;100.00
64292;BME280;50628;51.008;13.658;2023-02-01T03:33:30;99497.84;;;4.31;100.00
64292;BME280;50628;51.008;13.658;2023-02-01T03:38:38;99492.25;;;4.39;100.00
64292;BME280;50628;51.008;13.658;2023-02-01T03:43:52;99504.94;;;4.42;100.00
64292;BME280;50628;51.008;13.658;2023-02-01T03:48:55;99495.53;;;4.41;100.00
64292;BME280;50628;51.008;13.658;2023-02-01T03:53:59;99515.88;;;4.45;100.00
64292;BME280;50628;51.008;13.658;2023-02-01T03:59:03;99500.22;;;4.48;100.00
64292;BME280;50628;51.008;13.658;2023-02-01T04:04:09;99489.75;;;4.51;100.00
64292;BME280;50628;51.008;13.658;2023-02-01T04:09:14;99483.19;;;4.46;100.00
64292;BME280;50628;51.008;13.658;2023-02-01T04:14:16;99475.59;;;4.44;100.00
64292;BME280;50628;51.008;13.658;2023-02-01T04:19:18;99481.63;;;4.43;100.00
64292;BME280;50628;51.008;13.658;2023-02-01T04:24:21;99474.19;;;4.53;100.00
64292;BME280;50628;51.008;13.658;2023-02-01T04:29:23;99461.69;;;4.47;100.00
64292;BME280;50628;51.008;13.658;2023-02-01T04:34:25;99459.66;;;4.52;100.00
64292;BME280;50628;51.008;13.658;2023-02-01T04:39:28;99451.47;;;4.45;100.00
64292;BME280;50628;51.008;13.658;2023-02-01T04:44:30;99456.53;;;4.47;100.00
64292;BME280;50628;51.008;13.658;2023-02-01T04:49:32;99453.94;;;4.47;100.00
64292;BME280;50628;51.008;13.658;2023-02-01T04:54:35;99430.75;;;4.47;100.00
64292;BME280;50628;51.008;13.658;2023-02-01T04:59:37;99426.16;;;4.38;100.00
64292;BME280;50628;51.008;13.658;2023-02-01T05:04:39;99411.91;;;4.46;100.00
64292;BME280;50628;51.008;13.658;2023-02-01T05:09:42;99404.31;;;4.43;100.00
64292;BME280;50628;51.008;13.658;2023-02-01T05:14:44;99400.84;;;4.44;100.00
64292;BME280;50628;51.008;13.658;2023-02-01T05:19:46;99398.53;;;4.54;100.00
64292;BME280;50628;51.008;13.658;2023-02-01T05:24:49;99408.31;;;4.49;100.00
64292;BME280;50628;51.008;13.658;2023-02-01T05:29:51;99379.84;;;4.50;100.00
64292;BME280;50628;51.008;13.658;2023-02-01T05:34:52;99382.63;;;4.47;100.00
64292;BME280;50628;51.008;13.658;2023-02-01T05:39:57;99371.56;;;4.45;100.00
64292;BME280;50628;51.008;13.658;2023-02-01T05:44:59;99367.22;;;4.60;100.00
64292;BME280;50628;51.008;13.658;2023-02-01T05:50:01;99375.97;;;4.58;100.00
64292;BME280;50628;51.008;13.658;2023-02-01T05:55:05;99387.31;;;4.55;100.00
64292;BME280;50628;51.008;13.658;2023-02-01T06:00:08;99374.69;;;4.50;100.00
64292;BME280;50628;51.008;13.658;2023-02-01T06:05:13;99377.53;;;4.60;100.00
64292;BME280;50628;51.008;13.658;2023-02-01T06:10:17;99370.19;;;4.54;100.00
64292;BME280;50628;51.008;13.658;2023-02-01T06:15:19;99367.50;;;4.55;100.00
64292;BME280;50628;51.008;13.658;2023-02-01T06:20:21;99369.53;;;4.50;100.00
64292;BME280;50628;51.008;13.658;2023-02-01T06:25:25;99377.94;;;4.54;100.00
64292;BME280;50628;51.008;13.658;2023-02-01T06:30:26;99373.19;;;4.61;100.00
64292;BME280;50628;51.008;13.658;2023-02-01T06:35:29;99366.59;;;4.57;100.00
64292;BME280;50628;51.008;13.658;2023-02-01T06:40:32;99378.63;;;4.56;100.00
64292;BME280;50628;51.008;13.658;2023-02-01T06:45:34;99381.22;;;4.56;100.00
64292;BME280;50628;51.008;13.658;2023-02-01T06:50:36;99363.84;;;4.45;100.00
64292;BME280;50628;51.008;13.658;2023-02-01T06:55:39;99369.00;;;4.45;100.00
64292;BME280;50628;51.008;13.658;2023-02-01T07:00:41;99367.06;;;4.49;100.00
64292;BME280;50628;51.008;13.658;2023-02-01T07:05:43;99356.31;;;4.42;100.00
64292;BME280;50628;51.008;13.658;2023-02-01T07:10:46;99364.59;;;4.33;100.00
64292;BME280;50628;51.008;13.658;2023-02-01T07:15:48;99352.91;;;4.27;100.00
64292;BME280;50628;51.008;13.658;2023-02-01T07:20:50;99353.13;;;3.96;100.00
64292;BME280;50628;51.008;13.658;2023-02-01T07:25:55;99364.19;;;3.67;100.00
64292;BME280;50628;51.008;13.658;2023-02-01T07:31:02;99353.44;;;3.61;100.00
64292;BME280;50628;51.008;13.658;2023-02-01T07:36:06;99337.69;;;3.51;100.00
64292;BME280;50628;51.008;13.658;2023-02-01T07:41:09;99327.59;;;3.62;100.00
64292;BME280;50628;51.008;13.658;2023-02-01T07:46:11;99317.78;;;3.69;100.00
64292;BME280;50628;51.008;13.658;2023-02-01T07:51:16;99327.00;;;3.73;100.00
64292;BME280;50628;51.008;13.658;2023-02-01T07:56:20;99325.88;;;3.77;100.00
64292;BME280;50628;51.008;13.658;2023-02-01T08:01:24;99319.97;;;3.75;100.00
64292;BME280;50628;51.008;13.658;2023-02-01T08:06:27;99309.06;;;3.86;100.00
64292;BME280;50628;51.008;13.658;2023-02-01T08:11:32;99314.66;;;3.93;100.00
64292;BME280;50628;51.008;13.658;2023-02-01T08:16:34;99308.13;;;3.87;100.00
64292;BME280;50628;51.008;13.658;2023-02-01T08:21:38;99310.91;;;3.84;100.00
64292;BME280;50628;51.008;13.658;2023-02-01T08:26:41;99296.28;;;3.84;100.00
64292;BME280;50628;51.008;13.658;2023-02-01T08:31:43;99288.75;;;3.96;100.00
64292;BME280;50628;51.008;13.658;2023-02-01T08:36:45;99265.34;;;4.13;100.00
64292;BME280;50628;51.008;13.658;2023-02-01T08:41:48;99280.56;;;4.30;100.00
64292;BME280;50628;51.008;13.658;2023-02-01T08:47:10;99297.22;;;4.39;100.00
64292;BME280;50628;51.008;13.658;2023-02-01T08:52:12;99289.09;;;4.45;100.00
64292;BME280;50628;51.008;13.658;2023-02-01T08:57:15;99271.53;;;4.52;100.00
64292;BME280;50628;51.008;13.658;2023-02-01T09:02:17;99289.56;;;4.52;100.00
64292;BME280;50628;51.008;13.658;2023-02-01T09:07:19;99287.06;;;4.50;100.00
64292;BME280;50628;51.008;13.658;2023-02-01T09:12:23;99298.63;;;4.30;100.00
64292;BME280;50628;51.008;13.658;2023-02-01T09:17:25;99305.44;;;4.31;100.00
64292;BME280;50628;51.008;13.658;2023-02-01T09:22:27;99297.53;;;4.20;100.00
64292;BME280;50628;51.008;13.658;2023-02-01T09:27:30;99311.00;;;4.11;100.00
64292;BME280;50628;51.008;13.658;2023-02-01T09:32:32;99316.50;;;4.05;100.00
64292;BME280;50628;51.008;13.658;2023-02-01T09:37:34;99302.53;;;3.95;100.00
64292;BME280;50628;51.008;13.658;2023-02-01T09:42:58;99315.94;;;3.85;100.00
64292;BME280;50628;51.008;13.658;2023-02-01T09:48:05;99321.06;;;3.57;100.00
64292;BME280;50628;51.008;13.658;2023-02-01T09:53:16;99328.28;;;3.06;100.00
64292;BME280;50628;51.008;13.658;2023-02-01T09:58:25;99340.69;;;2.83;100.00
64292;BME280;50628;51.008;13.658;2023-02-01T10:03:30;99352.28;;;2.58;100.00
64292;BME280;50628;51.008;13.658;2023-02-01T10:08:44;99361.22;;;2.51;100.00
64292;BME280;50628;51.008;13.658;2023-02-01T10:13:59;99357.84;;;2.51;100.00
64292;BME280;50628;51.008;13.658;2023-02-01T10:19:21;99371.25;;;2.56;100.00
64292;BME280;50628;51.008;13.658;2023-02-01T10:24:47;99370.78;;;2.65;100.00
64292;BME280;50628;51.008;13.658;2023-02-01T10:30:01;99382.47;;;2.71;100.00
64292;BME280;50628;51.008;13.658;2023-02-01T10:35:13;99373.19;;;2.68;100.00
64292;BME280;50628;51.008;13.658;2023-02-01T10:40:18;99365.13;;;2.74;100.00
64292;BME280;50628;51.008;13.658;2023-02-01T10:45:26;99372.59;;;2.95;100.00
64292;BME280;50628;51.008;13.658;2023-02-01T10:50:34;99369.19;;;3.10;100.00
64292;BME280;50628;51.008;13.658;2023-02-01T10:55:40;99379.63;;;3.37;100.00
64292;BME280;50628;51.008;13.658;2023-02-01T11:00:47;99365.03;;;3.68;100.00
64292;BME280;50628;51.008;13.658;2023-02-01T11:05:49;99386.75;;;3.93;100.00
64292;BME280;50628;51.008;13.658;2023-02-01T11:10:57;99364.22;;;4.10;100.00
64292;BME280;50628;51.008;13.658;2023-02-01T11:16:03;99363.75;;;4.18;100.00
64292;BME280;50628;51.008;13.658;2023-02-01T11:21:07;99371.59;;;4.17;100.00
64292;BME280;50628;51.008;13.658;2023-02-01T11:26:12;99357.97;;;4.29;100.00
64292;BME280;50628;51.008;13.658;2023-02-01T11:31:16;99376.91;;;4.42;100.00
64292;BME280;50628;51.008;13.658;2023-02-01T11:36:21;99366.22;;;4.63;100.00
64292;BME280;50628;51.008;13.658;2023-02-01T11:41:27;99345.25;;;4.54;100.00
64292;BME280;50628;51.008;13.658;2023-02-01T11:46:32;99329.84;;;4.67;100.00
64292;BME280;50628;51.008;13.658;2023-02-01T11:51:42;99334.09;;;4.81;100.00
64292;BME280;50628;51.008;13.658;2023-02-01T11:56:54;99319.56;;;4.80;100.00
64292;BME280;50628;51.008;13.658;2023-02-01T12:02:30;99312.09;;;4.90;100.00
64292;BME280;50628;51.008;13.658;2023-02-01T12:07:55;99305.69;;;4.95;100.00
64292;BME280;50628;51.008;13.658;2023-02-01T12:13:10;99285.59;;;5.01;100.00
64292;BME280;50628;51.008;13.658;2023-02-01T12:18:29;99307.78;;;5.03;100.00
64292;BME280;50628;51.008;13.658;2023-02-01T12:23:58;99296.72;;;5.01;100.00
64292;BME280;50628;51.008;13.658;2023-02-01T12:29:24;99301.88;;;5.01;100.00
64292;BME280;50628;51.008;13.658;2023-02-01T12:34:55;99287.16;;;5.03;100.00
64292;BME280;50628;51.008;13.658;2023-02-01T12:40:17;99299.03;;;5.06;100.00
64292;BME280;50628;51.008;13.658;2023-02-01T12:45:30;99298.94;;;5.20;100.00
64292;BME280;50628;51.008;13.658;2023-02-01T12:50:43;99301.63;;;5.18;100.00
64292;BME280;50628;51.008;13.658;2023-02-01T12:55:49;99284.28;;;5.20;100.00
64292;BME280;50628;51.008;13.658;2023-02-01T13:00:57;99282.25;;;5.26;100.00
64292;BME280;50628;51.008;13.658;2023-02-01T13:06:04;99273.69;;;5.25;100.00
64292;BME280;50628;51.008;13.658;2023-02-01T13:11:13;99285.97;;;5.34;100.00
64292;BME280;50628;51.008;13.658;2023-02-01T13:16:23;99275.53;;;5.49;100.00
64292;BME280;50628;51.008;13.658;2023-02-01T13:21:31;99271.63;;;5.56;100.00
64292;BME280;50628;51.008;13.658;2023-02-01T13:26:34;99270.50;;;5.60;100.00
64292;BME280;50628;51.008;13.658;2023-02-01T13:31:50;99264.31;;;5.62;100.00
64292;BME280;50628;51.008;13.658;2023-02-01T13:37:12;99261.72;;;5.62;100.00
64292;BME280;50628;51.008;13.658;2023-02-01T13:42:18;99252.72;;;5.68;100.00
64292;BME280;50628;51.008;13.658;2023-02-01T13:47:26;99249.41;;;5.79;100.00
64292;BME280;50628;51.008;13.658;2023-02-01T13:52:37;99234.13;;;5.76;100.00
64292;BME280;50628;51.008;13.658;2023-02-01T13:57:41;99237.44;;;5.78;100.00
64292;BME280;50628;51.008;13.658;2023-02-01T14:03:03;99241.38;;;5.71;100.00
64292;BME280;50628;51.008;13.658;2023-02-01T14:08:13;99237.75;;;5.73;100.00
64292;BME280;50628;51.008;13.658;2023-02-01T14:13:25;99248.59;;;5.78;100.00
64292;BME280;50628;51.008;13.658;2023-02-01T14:18:59;99241.88;;;5.76;100.00
64292;BME280;50628;51.008;13.658;2023-02-01T14:24:15;99244.66;;;5.73;100.00
64292;BME280;50628;51.008;13.658;2023-02-01T14:29:27;99230.44;;;5.67;100.00
64292;BME280;50628;51.008;13.658;2023-02-01T14:34:49;99219.47;;;5.63;100.00
64292;BME280;50628;51.008;13.658;2023-02-01T14:39:56;99213.94;;;5.57;100.00
64292;BME280;50628;51.008;13.658;2023-02-01T14:50:46;99219.78;;;5.59;100.00
64292;BME280;50628;51.008;13.658;2023-02-01T14:55:53;99212.16;;;5.57;100.00
64292;BME280;50628;51.008;13.658;2023-02-01T15:01:03;99226.09;;;5.55;100.00
64292;BME280;50628;51.008;13.658;2023-02-01T15:11:59;99201.00;;;5.57;100.00
64292;BME280;50628;51.008;13.658;2023-02-01T15:17:15;99186.03;;;5.49;100.00
64292;BME280;50628;51.008;13.658;2023-02-01T15:22:18;99185.75;;;5.28;100.00
64292;BME280;50628;51.008;13.658;2023-02-01T15:27:22;99189.66;;;5.21;100.00
64292;BME280;50628;51.008;13.658;2023-02-01T15:32:28;99184.72;;;5.05;100.00
64292;BME280;50628;51.008;13.658;2023-02-01T15:37:31;99153.16;;;5.02;100.00
64292;BME280;50628;51.008;13.658;2023-02-01T15:42:35;99143.22;;;4.95;100.00
64292;BME280;50628;51.008;13.658;2023-02-01T15:47:37;99137.16;;;4.96;100.00
64292;BME280;50628;51.008;13.658;2023-02-01T15:52:41;99122.06;;;5.03;100.00
64292;BME280;50628;51.008;13.658;2023-02-01T15:57:45;99134.38;;;4.99;100.00
64292;BME280;50628;51.008;13.658;2023-02-01T16:02:52;99150.53;;;4.89;100.00
64292;BME280;50628;51.008;13.658;2023-02-01T16:07:56;99125.13;;;4.44;100.00
64292;BME280;50628;51.008;13.658;2023-02-01T16:13:05;99122.44;;;4.06;100.00
64292;BME280;50628;51.008;13.658;2023-02-01T16:18:08;99101.88;;;3.64;100.00
64292;BME280;50628;51.008;13.658;2023-02-01T16:23:10;99087.03;;;3.41;100.00
64292;BME280;50628;51.008;13.658;2023-02-01T16:28:13;99092.75;;;3.32;100.00
64292;BME280;50628;51.008;13.658;2023-02-01T16:33:18;99064.44;;;3.32;100.00
64292;BME280;50628;51.008;13.658;2023-02-01T16:38:22;99073.19;;;3.29;100.00
64292;BME280;50628;51.008;13.658;2023-02-01T16:43:25;99086.56;;;3.34;100.00
64292;BME280;50628;51.008;13.658;2023-02-01T16:48:30;99090.78;;;3.50;100.00
64292;BME280;50628;51.008;13.658;2023-02-01T16:53:32;99103.53;;;3.65;100.00
64292;BME280;50628;51.008;13.658;2023-02-01T16:58:36;99131.41;;;3.44;100.00
64292;BME280;50628;51.008;13.658;2023-02-01T17:03:41;99196.72;;;3.13;100.00
64292;BME280;50628;51.008;13.658;2023-02-01T17:08:46;99298.59;;;2.54;100.00
64292;BME280;50628;51.008;13.658;2023-02-01T17:13:51;99276.22;;;1.59;100.00
64292;BME280;50628;51.008;13.658;2023-02-01T17:18:56;99205.59;;;1.36;100.00
64292;BME280;50628;51.008;13.658;2023-02-01T17:23:59;99214.84;;;1.39;100.00
64292;BME280;50628;51.008;13.658;2023-02-01T17:29:02;99220.84;;;1.55;100.00
64292;BME280;50628;51.008;13.658;2023-02-01T17:34:04;99200.66;;;1.65;100.00
64292;BME280;50628;51.008;13.658;2023-02-01T17:39:06;99224.00;;;1.76;100.00
64292;BME280;50628;51.008;13.658;2023-02-01T17:44:10;99224.13;;;1.90;100.00
64292;BME280;50628;51.008;13.658;2023-02-01T17:49:12;99240.44;;;2.05;100.00
64292;BME280;50628;51.008;13.658;2023-02-01T17:54:14;99248.47;;;2.31;100.00
64292;BME280;50628;51.008;13.658;2023-02-01T17:59:17;99256.41;;;2.26;100.00
64292;BME280;50628;51.008;13.658;2023-02-01T18:04:19;99275.56;;;2.36;100.00
64292;BME280;50628;51.008;13.658;2023-02-01T18:09:22;99276.47;;;2.35;100.00
64292;BME280;50628;51.008;13.658;2023-02-01T18:14:25;99272.00;;;2.39;100.00
64292;BME280;50628;51.008;13.658;2023-02-01T18:19:27;99266.19;;;2.35;100.00
64292;BME280;50628;51.008;13.658;2023-02-01T18:24:28;99281.94;;;2.45;100.00
64292;BME280;50628;51.008;13.658;2023-02-01T18:29:34;99285.00;;;2.52;100.00
64292;BME280;50628;51.008;13.658;2023-02-01T18:34:36;99280.13;;;2.47;100.00
64292;BME280;50628;51.008;13.658;2023-02-01T18:39:38;99279.38;;;2.45;100.00
64292;BME280;50628;51.008;13.658;2023-02-01T18:44:41;99285.69;;;2.40;100.00
64292;BME280;50628;51.008;13.658;2023-02-01T18:49:43;99286.25;;;2.29;100.00
64292;BME280;50628;51.008;13.658;2023-02-01T18:54:44;99278.41;;;2.32;100.00
64292;BME280;50628;51.008;13.658;2023-02-01T18:59:48;99273.56;;;2.26;100.00
64292;BME280;50628;51.008;13.658;2023-02-01T19:04:50;99278.13;;;2.21;100.00
64292;BME280;50628;51.008;13.658;2023-02-01T19:09:51;99281.19;;;2.11;100.00
64292;BME280;50628;51.008;13.658;2023-02-01T19:14:55;99276.13;;;2.26;100.00
64292;BME280;50628;51.008;13.658;2023-02-01T19:19:57;99272.16;;;2.36;100.00
64292;BME280;50628;51.008;13.658;2023-02-01T19:24:59;99279.19;;;2.48;100.00
64292;BME280;50628;51.008;13.658;2023-02-01T19:30:03;99294.59;;;2.64;100.00
64292;BME280;50628;51.008;13.658;2023-02-01T19:35:07;99285.81;;;2.68;100.00
64292;BME280;50628;51.008;13.658;2023-02-01T19:40:11;99291.19;;;2.79;100.00
64292;BME280;50628;51.008;13.658;2023-02-01T19:45:14;99285.34;;;2.92;100.00
64292;BME280;50628;51.008;13.658;2023-02-01T19:50:18;99289.41;;;2.96;100.00
64292;BME280;50628;51.008;13.658;2023-02-01T19:55:21;99278.38;;;2.94;100.00
64292;BME280;50628;51.008;13.658;2023-02-01T20:00:25;99296.13;;;2.98;100.00
64292;BME280;50628;51.008;13.658;2023-02-01T20:05:27;99304.03;;;2.95;100.00
64292;BME280;50628;51.008;13.658;2023-02-01T20:10:29;99298.50;;;3.01;100.00
64292;BME280;50628;51.008;13.658;2023-02-01T20:15:32;99309.06;;;2.97;100.00
64292;BME280;50628;51.008;13.658;2023-02-01T20:20:34;99298.94;;;2.94;100.00
64292;BME280;50628;51.008;13.658;2023-02-01T20:25:36;99314.63;;;3.05;100.00
64292;BME280;50628;51.008;13.658;2023-02-01T20:30:42;99329.13;;;3.06;100.00
64292;BME280;50628;51.008;13.658;2023-02-01T20:35:44;99336.00;;;3.06;100.00
64292;BME280;50628;51.008;13.658;2023-02-01T20:40:46;99335.50;;;2.99;100.00
64292;BME280;50628;51.008;13.658;2023-02-01T20:45:49;99344.66;;;2.89;100.00
64292;BME280;50628;51.008;13.658;2023-02-01T20:50:52;99358.31;;;2.89;100.00
64292;BME280;50628;51.008;13.658;2023-02-01T20:55:56;99350.72;;;2.88;100.00
64292;BME280;50628;51.008;13.658;2023-02-01T21:01:00;99358.00;;;2.95;100.00
64292;BME280;50628;51.008;13.658;2023-02-01T21:06:03;99349.19;;;2.99;100.00
64292;BME280;50628;51.008;13.658;2023-02-01T21:11:08;99348.13;;;3.03;100.00
64292;BME280;50628;51.008;13.658;2023-02-01T21:16:12;99357.16;;;3.11;100.00
64292;BME280;50628;51.008;13.658;2023-02-01T21:21:15;99346.59;;;3.15;100.00
64292;BME280;50628;51.008;13.658;2023-02-01T21:26:21;99352.91;;;3.10;100.00
64292;BME280;50628;51.008;13.658;2023-02-01T21:31:24;99352.31;;;3.04;100.00
64292;BME280;50628;51.008;13.658;2023-02-01T21:36:26;99358.56;;;3.00;100.00
64292;BME280;50628;51.008;13.658;2023-02-01T21:41:33;99357.41;;;3.06;100.00
64292;BME280;50628;51.008;13.658;2023-02-01T21:46:54;99360.66;;;2.94;100.00
64292;BME280;50628;51.008;13.658;2023-02-01T21:51:56;99367.97;;;2.86;100.00
64292;BME280;50628;51.008;13.658;2023-02-01T21:56:58;99366.22;;;2.86;100.00
64292;BME280;50628;51.008;13.658;2023-02-01T22:02:01;99363.81;;;2.83;100.00
64292;BME280;50628;51.008;13.658;2023-02-01T22:07:04;99360.34;;;2.68;100.00
64292;BME280;50628;51.008;13.658;2023-02-01T22:12:07;99373.34;;;2.65;100.00
64292;BME280;50628;51.008;13.658;2023-02-01T22:17:11;99375.09;;;2.65;100.00
64292;BME280;50628;51.008;13.658;2023-02-01T22:22:13;99365.13;;;2.74;100.00
64292;BME280;50628;51.008;13.658;2023-02-01T22:27:16;99367.63;;;2.76;100.00
64292;BME280;50628;51.008;13.658;2023-02-01T22:32:19;99360.81;;;2.91;100.00
64292;BME280;50628;51.008;13.658;2023-02-01T22:37:21;99368.84;;;3.00;100.00
64292;BME280;50628;51.008;13.658;2023-02-01T22:42:23;99367.59;;;3.08;100.00
64292;BME280;50628;51.008;13.658;2023-02-01T22:47:26;99368.31;;;3.10;100.00
64292;BME280;50628;51.008;13.658;2023-02-01T22:52:28;99370.50;;;3.01;100.00
64292;BME280;50628;51.008;13.658;2023-02-01T22:57:30;99358.16;;;3.08;100.00
64292;BME280;50628;51.008;13.658;2023-02-01T23:02:34;99359.03;;;3.07;100.00
64292;BME280;50628;51.008;13.658;2023-02-01T23:07:36;99356.75;;;3.02;100.00
64292;BME280;50628;51.008;13.658;2023-02-01T23:12:38;99363.53;;;3.03;100.00
64292;BME280;50628;51.008;13.658;2023-02-01T23:17:42;99345.97;;;2.96;100.00
64292;BME280;50628;51.008;13.658;2023-02-01T23:22:46;99340.75;;;2.97;100.00
64292;BME280;50628;51.008;13.658;2023-02-01T23:27:48;99341.91;;;2.92;100.00
64292;BME280;50628;51.008;13.658;2023-02-01T23:32:51;99353.75;;;2.94;100.00
64292;BME280;50628;51.008;13.658;2023-02-01T23:37:53;99356.75;;;2.87;100.00
64292;BME280;50628;51.008;13.658;2023-02-01T23:42:55;99364.22;;;2.91;100.00
64292;BME280;50628;51.008;13.658;2023-02-01T23:48:12;99370.78;;;2.81;100.00
64292;BME280;50628;51.008;13.658;2023-02-01T23:53:14;99368.03;;;2.84;100.00
64292;BME280;50628;51.008;13.658;2023-02-01T23:58:16;99368.03;;;2.84;100.00
